Time;durP1;ratioP1;P1;durP2;ratioP2;P2;SDS_P1;SDS_P2;PMS_P1;PMS_P2;Temp;Humidity;BMP_temperature;BMP_pressure;BME280_temperature;BME280_humidity;BME280_pressure;Samples;Min_cycle;Max_cycle;Signal;HPM_P1;HPM_P2
2023/07/10 00:00:44;;;;;;;1.10;1.10;;;;;;;22.83;61.04;95808.53;4340933;32;20198;-65
2023/07/10 00:03:09;;;;;;;1.23;1.17;;;;;;;22.88;61.04;95806.28;4332542;32;20253;-65
2023/07/10 00:05:35;;;;;;;1.50;1.40;;;;;;;22.95;61.27;95816.47;4341527;32;20213;-65
2023/07/10 00:08:00;;;;;;;1.33;1.20;;;;;;;22.93;60.94;95818.75;4328357;32;20197;-65
2023/07/10 00:10:26;;;;;;;1.33;1.33;;;;;;;22.93;60.96;95807.91;4331627;32;20193;-65
2023/07/10 00:12:51;;;;;;;2.00;1.37;;;;;;;22.86;61.44;95807.81;4344792;32;20199;-65
2023/07/10 00:15:20;;;;;;;1.57;1.47;;;;;;;22.80;61.23;95812.72;4347660;32;20237;-65
2023/07/10 00:17:47;;;;;;;1.10;1.03;;;;;;;22.68;62.41;95807.44;4340993;32;20197;-65
2023/07/10 00:20:15;;;;;;;0.90;0.90;;;;;;;22.67;62.27;95807.78;4342021;32;20211;-65
2023/07/10 00:22:41;;;;;;;0.83;0.83;;;;;;;22.80;61.51;95809.25;4342630;32;20233;-65
2023/07/10 00:25:10;;;;;;;0.97;0.97;;;;;;;22.80;61.43;95803.81;4331645;32;20246;-65
2023/07/10 00:27:36;;;;;;;3.47;1.27;;;;;;;22.70;62.42;95804.38;4344844;32;20212;-65
2023/07/10 00:30:02;;;;;;;1.30;1.23;;;;;;;22.72;62.16;95802.88;4345474;32;20244;-65
2023/07/10 00:32:27;;;;;;;0.77;0.77;;;;;;;22.77;62.00;95804.50;4329099;32;20229;-65
2023/07/10 00:34:52;;;;;;;1.27;1.27;;;;;;;22.72;61.96;95802.09;4331690;32;20188;-65
2023/07/10 00:37:17;;;;;;;1.90;1.73;;;;;;;22.62;62.52;95798.84;4347806;32;20224;-65
2023/07/10 00:39:43;;;;;;;2.07;1.83;;;;;;;22.56;62.29;95802.97;4346013;32;20228;-65
2023/07/10 00:42:20;;;;;;;1.23;1.23;;;;;;;22.66;62.61;95806.22;4351229;32;20200;-62
2023/07/10 00:44:54;;;;;;;0.73;0.73;;;;;;;22.52;62.56;95804.84;4342377;32;20235;-62
2023/07/10 00:47:31;;;;;;;1.07;1.07;;;;;;;22.57;62.81;95796.44;4330160;32;20200;-65
2023/07/10 00:50:03;;;;;;;2.37;2.23;;;;;;;22.55;62.51;95793.31;4337432;32;20258;-65
2023/07/10 00:52:34;;;;;;;1.77;1.30;;;;;;;22.51;62.26;95791.66;4343629;32;20185;-65
2023/07/10 00:55:02;;;;;;;2.10;1.83;;;;;;;22.45;63.44;95799.28;4348307;32;20193;-65
2023/07/10 00:57:35;;;;;;;1.17;1.17;;;;;;;22.46;63.21;95794.66;4338218;32;20237;-65
2023/07/10 01:00:21;;;;;;;1.10;1.10;;;;;;;22.50;62.64;95796.28;4347625;32;20249;-65
2023/07/10 01:02:47;;;;;;;2.27;1.17;;;;;;;22.45;62.94;95796.56;4332263;32;20201;-65
2023/07/10 01:05:15;;;;;;;0.87;0.87;;;;;;;22.47;63.19;95791.59;4340264;32;20240;-65
2023/07/10 01:08:06;;;;;;;0.93;0.93;;;;;;;22.51;62.42;95789.75;4344488;32;20253;-65
2023/07/10 01:10:31;;;;;;;1.23;0.90;;;;;;;22.54;62.72;95786.31;4339655;32;20201;-64
2023/07/10 01:12:57;;;;;;;1.60;1.50;;;;;;;22.50;62.47;95784.69;4349148;32;20196;-65
2023/07/10 01:15:22;;;;;;;1.40;1.30;;;;;;;22.40;63.42;95793.41;4339057;32;20248;-64
2023/07/10 01:17:48;;;;;;;9.40;1.67;;;;;;;22.47;63.04;95786.19;4331787;32;20193;-65
2023/07/10 01:20:40;;;;;;;0.83;0.83;;;;;;;22.35;63.69;95794.47;4349248;32;20193;-65
2023/07/10 01:23:06;;;;;;;2.87;1.93;;;;;;;22.37;63.61;95786.00;4340174;32;20205;-65
2023/07/10 01:25:41;;;;;;;1.93;1.80;;;;;;;22.17;63.64;95782.53;4341618;32;20311;-65
2023/07/10 01:28:09;;;;;;;1.33;1.23;;;;;;;22.19;64.49;95785.66;4330063;32;20265;-65
2023/07/10 01:30:37;;;;;;;2.57;2.17;;;;;;;22.07;64.33;95789.25;4334217;32;20230;-65
2023/07/10 01:33:04;;;;;;;1.33;1.30;;;;;;;22.05;64.08;95778.03;4331702;32;20197;-65
2023/07/10 01:35:31;;;;;;;2.20;2.07;;;;;;;22.07;65.43;95778.44;4355146;32;20246;-65
2023/07/10 01:37:57;;;;;;;1.53;1.30;;;;;;;22.06;65.23;95776.09;4357436;32;20240;-65
2023/07/10 01:40:30;;;;;;;5.10;1.53;;;;;;;22.04;64.71;95772.97;4342395;32;20203;-65
2023/07/10 01:42:57;;;;;;;3.13;1.87;;;;;;;22.01;65.36;95771.00;4361382;32;20206;-65
2023/07/10 01:45:27;;;;;;;1.47;1.47;;;;;;;22.01;64.72;95768.31;4360266;32;20180;-64
2023/07/10 01:47:53;;;;;;;2.90;2.10;;;;;;;22.04;64.87;95764.88;4355534;32;20189;-65
2023/07/10 01:50:20;;;;;;;1.17;1.17;;;;;;;22.01;64.89;95757.50;4352579;32;20185;-65
2023/07/10 01:52:45;;;;;;;1.90;1.27;;;;;;;22.03;65.16;95766.78;4346759;32;20193;-65
2023/07/10 01:55:14;;;;;;;0.77;0.77;;;;;;;22.05;64.65;95758.31;4360280;32;20204;-65
2023/07/10 01:57:40;;;;;;;1.47;1.33;;;;;;;22.03;65.17;95768.72;4358372;32;20272;-65
2023/07/10 02:00:06;;;;;;;3.87;1.27;;;;;;;22.00;65.43;95772.13;4358285;32;20228;-65
2023/07/10 02:02:31;;;;;;;1.17;1.17;;;;;;;21.94;65.35;95769.69;4357037;32;20250;-65
2023/07/10 02:04:56;;;;;;;0.93;0.93;;;;;;;21.97;64.97;95770.13;4345246;32;20290;-65
2023/07/10 02:07:22;;;;;;;1.00;1.00;;;;;;;21.92;65.30;95776.56;4356548;32;20208;-65
2023/07/10 02:09:47;;;;;;;0.83;0.83;;;;;;;21.93;65.16;95778.94;4359189;32;20204;-65
2023/07/10 02:12:12;;;;;;;2.87;1.00;;;;;;;21.94;65.50;95780.50;4359933;32;20211;-65
2023/07/10 02:14:39;;;;;;;4.13;1.87;;;;;;;21.89;65.22;95788.88;4356259;32;20203;-65
2023/07/10 02:17:04;;;;;;;1.20;1.20;;;;;;;21.99;64.93;95787.53;4348449;32;20219;-65
2023/07/10 02:19:30;;;;;;;1.67;1.57;;;;;;;22.01;64.77;95793.41;4357007;32;20260;-65
2023/07/10 02:21:55;;;;;;;1.73;1.30;;;;;;;21.92;64.83;95792.78;4357189;32;20181;-65
2023/07/10 02:24:20;;;;;;;1.07;1.07;;;;;;;21.93;64.97;95794.34;4361852;32;20206;-65
2023/07/10 02:26:46;;;;;;;0.73;0.73;;;;;;;22.01;64.81;95800.72;4361881;32;20205;-65
2023/07/10 02:29:11;;;;;;;0.77;0.77;;;;;;;21.81;65.71;95805.31;4347550;32;20192;-65
2023/07/10 02:31:36;;;;;;;1.30;1.20;;;;;;;21.90;64.71;95806.66;4362295;32;20228;-65
2023/07/10 02:34:02;;;;;;;1.17;1.00;;;;;;;21.90;64.84;95812.06;4341834;32;20197;-65
2023/07/10 02:36:28;;;;;;;1.23;1.23;;;;;;;21.86;65.21;95805.00;4361424;32;20185;-65
2023/07/10 02:38:54;;;;;;;1.43;1.37;;;;;;;21.65;65.77;95813.41;4360519;32;20189;-65
2023/07/10 02:41:20;;;;;;;0.70;0.70;;;;;;;21.59;66.28;95815.63;4347928;32;20230;-65
2023/07/10 02:43:45;;;;;;;1.50;1.40;;;;;;;21.61;65.92;95809.87;4362347;32;20285;-65
2023/07/10 02:46:10;;;;;;;0.80;0.80;;;;;;;21.65;65.81;95812.62;4361305;32;20208;-65
2023/07/10 02:48:36;;;;;;;1.40;1.40;;;;;;;21.84;65.14;95813.47;4344871;32;20181;-65
2023/07/10 02:51:01;;;;;;;1.63;1.53;;;;;;;21.90;64.75;95814.75;4348260;32;20355;-65
2023/07/10 02:53:26;;;;;;;0.80;0.80;;;;;;;21.79;64.98;95812.97;4343511;32;20236;-65
2023/07/10 02:55:52;;;;;;;1.00;1.00;;;;;;;21.82;65.16;95810.31;4346448;32;20226;-65
2023/07/10 02:58:17;;;;;;;0.53;0.53;;;;;;;21.67;65.42;95802.25;4361499;32;20302;-65
2023/07/10 03:00:42;;;;;;;1.53;1.43;;;;;;;21.80;64.81;95804.50;4361305;32;20189;-65
2023/07/10 03:03:08;;;;;;;1.17;1.10;;;;;;;21.78;65.67;95793.28;4347531;32;20262;-66
2023/07/10 03:05:33;;;;;;;0.80;0.80;;;;;;;21.80;65.93;95787.53;4359143;32;20210;-65
2023/07/10 03:07:58;;;;;;;1.47;1.20;;;;;;;21.79;65.37;95789.44;4359100;32;20185;-65
2023/07/10 03:10:24;;;;;;;1.33;1.23;;;;;;;21.76;65.41;95782.03;4348311;32;20216;-65
2023/07/10 03:12:50;;;;;;;1.03;1.03;;;;;;;21.80;65.10;95785.59;4352825;32;20189;-65
2023/07/10 03:15:15;;;;;;;1.23;1.23;;;;;;;21.64;66.55;95779.44;4362121;32;20208;-65
2023/07/10 03:17:41;;;;;;;1.87;1.77;;;;;;;21.73;65.48;95773.84;4357848;32;20189;-65
2023/07/10 03:20:08;;;;;;;1.00;1.00;;;;;;;21.65;66.32;95774.81;4359419;32;20242;-65
2023/07/10 03:22:33;;;;;;;1.20;1.20;;;;;;;21.65;66.09;95778.31;4359217;32;20234;-65
2023/07/10 03:24:59;;;;;;;0.83;0.83;;;;;;;21.67;65.87;95775.25;4355694;32;20201;-65
2023/07/10 03:27:24;;;;;;;0.80;0.80;;;;;;;21.70;65.42;95780.75;4359274;32;20233;-65
2023/07/10 03:29:50;;;;;;;0.60;0.60;;;;;;;21.47;65.89;95775.22;4358503;32;20212;-65
2023/07/10 03:32:16;;;;;;;1.40;1.00;;;;;;;21.41;66.29;95778.53;4349386;32;20188;-65
2023/07/10 03:34:41;;;;;;;1.60;1.30;;;;;;;21.45;67.30;95774.78;4359817;32;20197;-65
2023/07/10 03:37:07;;;;;;;1.20;1.20;;;;;;;21.46;66.44;95778.28;4356073;32;20263;-65
2023/07/10 03:39:33;;;;;;;1.37;1.27;;;;;;;21.52;66.45;95783.06;4360783;32;20193;-65
2023/07/10 03:41:59;;;;;;;1.40;1.40;;;;;;;21.61;65.77;95777.47;4357806;32;20194;-65
2023/07/10 03:44:24;;;;;;;1.13;1.13;;;;;;;21.64;65.91;95782.12;4359603;32;20185;-65
2023/07/10 03:46:50;;;;;;;1.43;1.43;;;;;;;21.66;66.22;95774.47;4346712;32;20255;-65
2023/07/10 03:49:15;;;;;;;1.00;1.00;;;;;;;21.48;66.29;95776.00;4348836;32;20185;-65
2023/07/10 03:51:40;;;;;;;5.53;1.50;;;;;;;21.52;66.46;95790.38;4347663;32;20207;-65
2023/07/10 03:54:07;;;;;;;0.87;0.87;;;;;;;21.56;66.93;95793.94;4346555;32;20194;-65
2023/07/10 03:56:33;;;;;;;1.43;1.40;;;;;;;21.47;67.37;95782.53;4347035;32;20203;-65
2023/07/10 03:58:58;;;;;;;1.27;1.17;;;;;;;;;;4356157;32;20276;-65
2023/07/10 04:01:24;;;;;;;1.00;1.00;;;;;;;21.58;66.45;95792.47;4359503;32;20203;-65
2023/07/10 04:03:49;;;;;;;1.23;1.23;;;;;;;21.62;65.91;95784.41;4362745;32;20193;-65
2023/07/10 04:06:16;;;;;;;1.70;1.70;;;;;;;21.56;66.48;95788.53;4360518;32;20185;-65
2023/07/10 04:08:43;;;;;;;1.20;1.20;;;;;;;21.64;65.79;95784.84;4345719;32;20189;-65
2023/07/10 04:11:14;;;;;;;1.33;1.17;;;;;;;21.63;66.29;95785.97;4360026;32;20246;-65
2023/07/10 04:13:40;;;;;;;1.00;1.00;;;;;;;21.67;66.33;95791.47;4340787;32;26339;-65
2023/07/10 04:16:20;;;;;;;0.90;0.90;;;;;;;21.71;66.07;95793.13;4344099;32;20193;-65
2023/07/10 04:18:48;;;;;;;1.70;1.53;;;;;;;21.58;nan;95802.47;4360306;32;20200;-65
2023/07/10 04:21:13;;;;;;;1.03;0.97;;;;;;;21.71;66.85;95803.91;4359441;32;20231;-65
2023/07/10 04:23:38;;;;;;;1.47;1.03;;;;;;;21.69;66.23;95800.00;4355525;32;20241;-65
2023/07/10 04:26:04;;;;;;;0.90;0.90;;;;;;;21.68;65.82;95793.03;4355557;32;20215;-65
2023/07/10 04:28:30;;;;;;;0.90;0.90;;;;;;;21.72;66.78;95791.19;4346869;32;20263;-65
2023/07/10 04:30:55;;;;;;;1.33;1.33;;;;;;;21.69;66.71;95795.38;4346873;32;20255;-65
2023/07/10 04:33:21;;;;;;;1.20;1.10;;;;;;;21.87;65.77;95791.13;4346761;32;20196;-65
2023/07/10 04:35:55;;;;;;;0.87;0.87;;;;;;;21.92;65.71;95796.28;4343872;32;20203;-65
2023/07/10 04:38:27;;;;;;;0.93;0.93;;;;;;;21.78;66.07;95797.91;4340458;32;20236;-65
2023/07/10 04:41:00;;;;;;;1.43;1.33;;;;;;;21.84;65.75;95797.25;4346490;32;20208;-65
2023/07/10 04:43:27;;;;;;;1.10;1.10;;;;;;;21.82;66.14;95793.34;4353361;32;20245;-65
2023/07/10 04:45:54;;;;;;;1.33;1.30;;;;;;;21.91;65.73;95800.09;4337807;32;20203;-64
2023/07/10 04:48:20;;;;;;;0.73;0.73;;;;;;;21.97;65.42;95803.31;4348500;32;20201;-65
2023/07/10 04:50:48;;;;;;;0.97;0.97;;;;;;;21.93;65.95;95799.75;4360240;32;20189;-65
2023/07/10 04:53:14;;;;;;;1.23;1.23;;;;;;;22.01;65.62;95798.03;4345959;32;20204;-65
2023/07/10 04:55:40;;;;;;;3.77;2.17;;;;;;;22.01;65.50;95806.91;4355461;32;20229;-65
2023/07/10 04:58:05;;;;;;;1.03;1.00;;;;;;;22.01;65.72;95803.44;4360640;32;20311;-65
2023/07/10 05:00:31;;;;;;;1.03;1.03;;;;;;;22.05;65.93;95810.44;4356438;32;20223;-65
2023/07/10 05:02:56;;;;;;;2.80;0.60;;;;;;;22.14;66.08;95816.44;4358707;32;20219;-65
2023/07/10 05:05:22;;;;;;;1.67;1.47;;;;;;;22.11;65.82;95811.75;4343208;32;20204;-65
2023/07/10 05:07:47;;;;;;;0.90;0.90;;;;;;;22.15;65.81;95806.41;4361296;32;20226;-65
2023/07/10 05:10:12;;;;;;;1.40;1.27;;;;;;;22.18;65.77;95803.00;4345532;32;20196;-65
2023/07/10 05:12:38;;;;;;;0.50;0.50;;;;;;;22.25;65.63;95808.53;4361380;32;20264;-65
2023/07/10 05:15:03;;;;;;;0.67;0.67;;;;;;;22.27;65.66;95806.28;4339886;32;20243;-65
2023/07/10 05:17:29;;;;;;;5.30;1.37;;;;;;;22.29;64.90;95804.78;4360187;32;20201;-65
2023/07/10 05:19:54;;;;;;;5.63;1.60;;;;;;;22.38;64.99;95807.28;4361137;32;20189;-65
2023/07/10 05:22:19;;;;;;;12.50;2.10;;;;;;;22.36;65.07;95801.44;4348691;32;20207;-65
2023/07/10 05:24:44;;;;;;;1.20;1.20;;;;;;;22.37;64.99;95808.41;4346752;32;20192;-65
2023/07/10 05:27:10;;;;;;;1.50;1.40;;;;;;;22.44;65.00;95810.47;4349558;32;20307;-65
2023/07/10 05:29:35;;;;;;;1.23;1.20;;;;;;;22.41;65.24;95813.91;4326778;32;20323;-65
2023/07/10 05:32:00;;;;;;;1.23;1.13;;;;;;;22.53;65.58;95819.91;4361740;32;20201;-65
2023/07/10 05:34:26;;;;;;;14.43;1.90;;;;;;;22.52;65.42;95822.97;4355908;32;20229;-65
2023/07/10 05:36:51;;;;;;;1.57;1.17;;;;;;;22.62;66.10;95830.53;4345046;32;20201;-65
2023/07/10 05:39:17;;;;;;;3.47;1.37;;;;;;;22.67;66.07;95827.50;4364232;32;20201;-65
2023/07/10 05:41:45;;;;;;;2.40;1.47;;;;;;;22.68;66.46;95820.97;4361455;32;20205;-65
2023/07/10 05:44:11;;;;;;;0.93;0.93;;;;;;;22.74;65.71;95819.53;4357455;32;20309;-65
2023/07/10 05:46:37;;;;;;;1.10;1.10;;;;;;;22.75;66.07;95823.81;4344058;32;20205;-65
2023/07/10 05:49:02;;;;;;;2.00;1.53;;;;;;;22.78;66.67;95814.22;4357133;32;20201;-65
2023/07/10 05:51:27;;;;;;;1.33;1.23;;;;;;;22.81;65.74;95824.34;4349114;32;20253;-65
2023/07/10 05:53:53;;;;;;;1.67;1.40;;;;;;;22.86;65.71;95819.38;4356468;32;20186;-65
2023/07/10 05:56:18;;;;;;;1.70;1.60;;;;;;;22.86;65.47;95824.81;4363640;32;20262;-65
2023/07/10 05:58:43;;;;;;;1.03;1.03;;;;;;;22.88;65.11;95821.75;4362280;32;20201;-65
2023/07/10 06:01:10;;;;;;;1.47;1.37;;;;;;;22.87;67.22;95820.97;4361517;32;20189;-65
2023/07/10 06:03:35;;;;;;;0.80;0.80;;;;;;;22.93;65.12;95813.31;4360188;32;20216;-65
2023/07/10 06:06:03;;;;;;;0.97;0.97;;;;;;;22.94;65.15;95817.59;4356653;32;20197;-65
2023/07/10 06:08:30;;;;;;;0.90;0.80;;;;;;;22.97;63.75;95819.59;4361594;32;20181;-65
2023/07/10 06:10:55;;;;;;;1.67;1.67;;;;;;;23.04;63.59;95827.84;4357822;32;20209;-65
2023/07/10 06:13:21;;;;;;;0.90;0.90;;;;;;;23.12;63.88;95836.84;4344388;32;20224;-65
2023/07/10 06:15:49;;;;;;;0.80;0.80;;;;;;;23.18;63.37;95838.91;4358368;32;20241;-64
2023/07/10 06:18:15;;;;;;;2.40;1.83;;;;;;;23.26;63.28;95837.09;4358370;32;20193;-65
2023/07/10 06:20:41;;;;;;;1.33;0.77;;;;;;;23.33;62.81;95836.44;4358451;32;20253;-65
2023/07/10 06:23:07;;;;;;;0.80;0.80;;;;;;;23.33;64.64;95849.97;4356282;32;20212;-65
2023/07/10 06:25:32;;;;;;;2.13;0.73;;;;;;;23.45;62.74;95857.91;4358857;32;20204;-65
2023/07/10 06:27:57;;;;;;;5.37;1.63;;;;;;;23.43;61.96;95861.00;4361520;32;20244;-65
2023/07/10 06:30:23;;;;;;;1.00;1.00;;;;;;;23.46;61.61;95873.03;4348542;32;20239;-65
2023/07/10 06:32:50;;;;;;;0.80;0.80;;;;;;;23.56;61.59;95880.56;4362687;32;20193;-65
2023/07/10 06:35:15;;;;;;;1.00;1.00;;;;;;;23.61;61.81;95877.56;4360579;32;20284;-65
2023/07/10 06:37:41;;;;;;;1.00;1.00;;;;;;;23.68;61.93;95891.22;4362053;32;20276;-65
2023/07/10 06:40:13;;;;;;;3.60;1.40;;;;;;;23.77;61.18;95891.72;4347072;32;20205;-65
2023/07/10 06:42:41;;;;;;;1.00;1.00;;;;;;;23.85;61.69;95892.63;4348190;32;20201;-65
2023/07/10 06:45:07;;;;;;;1.47;1.47;;;;;;;23.91;60.78;95889.22;4360607;32;20197;-65
2023/07/10 06:47:39;;;;;;;1.57;1.33;;;;;;;23.97;60.66;95887.00;4360011;32;20219;-65
2023/07/10 06:50:06;;;;;;;0.93;0.93;;;;;;;24.03;60.50;95887.47;4345540;32;20205;-65
2023/07/10 06:52:32;;;;;;;0.97;0.97;;;;;;;24.04;60.19;95886.31;4360233;32;20193;-65
2023/07/10 06:54:58;;;;;;;2.67;2.57;;;;;;;24.07;59.77;95894.50;4347946;32;20192;-65
2023/07/10 06:57:23;;;;;;;3.03;2.80;;;;;;;24.12;59.81;95877.13;4359561;32;20188;-65
2023/07/10 06:59:49;;;;;;;2.10;2.00;;;;;;;24.23;59.67;95878.06;4341096;32;20196;-65
2023/07/10 07:02:14;;;;;;;1.40;1.40;;;;;;;24.28;58.86;95875.06;4342501;32;20228;-65
2023/07/10 07:04:41;;;;;;;1.23;1.23;;;;;;;24.33;60.17;95872.00;4351176;32;20185;-65
2023/07/10 07:07:07;;;;;;;5.17;1.50;;;;;;;24.41;58.46;95865.53;4361652;32;20218;-65
2023/07/10 07:09:33;;;;;;;1.57;1.47;;;;;;;24.55;57.85;95862.22;4359929;32;20212;-65
2023/07/10 07:11:58;;;;;;;4.40;1.63;;;;;;;24.79;55.74;95877.22;4358457;32;20224;-59
2023/07/10 07:14:24;;;;;;;0.70;0.70;;;;;;;24.68;56.28;95893.41;4361030;32;20231;-59
2023/07/10 07:16:50;;;;;;;27.07;1.37;;;;;;;24.54;56.14;95904.06;4359486;32;20192;-59
2023/07/10 07:19:15;;;;;;;1.23;1.23;;;;;;;24.40;55.91;95896.53;4359303;32;20227;-60
2023/07/10 07:21:41;;;;;;;0.90;0.90;;;;;;;24.40;53.99;95893.03;4347448;32;20270;-59
2023/07/10 07:24:06;;;;;;;1.03;1.03;;;;;;;24.46;54.49;95884.22;4361406;32;20211;-59
2023/07/10 07:26:31;;;;;;;2.57;1.80;;;;;;;24.39;54.25;95878.69;4358058;32;20246;-59
2023/07/10 07:28:57;;;;;;;1.93;1.37;;;;;;;24.46;52.70;95891.56;4359876;32;20224;-60
2023/07/10 07:31:22;;;;;;;1.20;1.20;;;;;;;24.35;54.26;95902.28;4346539;32;20216;-60
2023/07/10 07:33:48;;;;;;;3.03;1.00;;;;;;;24.32;54.06;95919.28;4348592;32;20256;-60
2023/07/10 07:36:14;;;;;;;0.83;0.83;;;;;;;24.39;53.52;95905.03;4341483;32;20244;-60
2023/07/10 07:38:39;;;;;;;1.10;1.00;;;;;;;24.40;53.71;95899.25;4355137;32;20194;-60
2023/07/10 07:41:06;;;;;;;1.07;1.07;;;;;;;24.50;53.47;95909.47;4345984;32;20199;-60
2023/07/10 07:43:32;;;;;;;1.20;1.20;;;;;;;24.49;54.00;95926.91;4341113;32;20185;-59
2023/07/10 07:45:58;;;;;;;0.70;0.70;;;;;;;24.52;54.78;95936.25;4356205;32;20203;-60
2023/07/10 07:48:24;;;;;;;1.30;1.20;;;;;;;24.60;54.24;95941.38;4361485;32;20189;-60
2023/07/10 07:50:58;;;;;;;1.00;1.00;;;;;;;24.62;54.91;95947.22;4354500;32;20200;-59
2023/07/10 07:53:26;;;;;;;2.03;1.70;;;;;;;24.55;54.78;95944.41;4344993;32;20239;-59
2023/07/10 07:55:52;;;;;;;1.33;1.33;;;;;;;24.48;55.65;95941.59;4346027;32;20197;-61
2023/07/10 07:58:17;;;;;;;1.47;1.47;;;;;;;24.55;54.94;95941.69;4362009;32;20181;-60
2023/07/10 08:00:43;;;;;;;2.93;1.87;;;;;;;24.55;55.66;95930.84;4358599;32;20200;-59
2023/07/10 08:03:10;;;;;;;2.27;2.17;;;;;;;24.56;55.71;95939.75;4357719;32;20310;-59
2023/07/10 08:05:35;;;;;;;0.90;0.90;;;;;;;24.51;55.46;95951.72;4356898;32;20212;-59
2023/07/10 08:08:01;;;;;;;1.40;1.23;;;;;;;24.49;55.86;95969.53;4356747;32;20261;-60
2023/07/10 08:10:26;;;;;;;0.90;0.90;;;;;;;24.53;55.78;95979.25;4358083;32;20201;-60
2023/07/10 08:12:52;;;;;;;1.10;1.10;;;;;;;24.47;56.37;95978.03;4344257;32;20197;-61
2023/07/10 08:15:18;;;;;;;1.30;1.30;;;;;;;24.60;54.66;95965.00;4341908;32;20189;-60
2023/07/10 08:17:43;;;;;;;2.87;1.27;;;;;;;24.59;55.24;95963.44;4350305;32;20190;-59
2023/07/10 08:20:09;;;;;;;1.30;1.30;;;;;;;24.62;55.06;95962.72;4357802;32;20220;-60
2023/07/10 08:22:34;;;;;;;16.23;14.63;;;;;;;24.54;55.57;95972.69;4357442;32;20212;-59
2023/07/10 08:25:01;;;;;;;4.90;4.57;;;;;;;24.56;55.49;95973.09;4359718;32;20207;-60
2023/07/10 08:27:27;;;;;;;2.27;2.07;;;;;;;24.52;55.43;95977.72;4358416;32;20223;-60
2023/07/10 08:29:52;;;;;;;10.90;2.97;;;;;;;24.55;55.78;95987.03;4340871;32;20289;-61
2023/07/10 08:32:17;;;;;;;0.87;0.87;;;;;;;24.52;56.01;95999.44;4361470;32;20270;-59
2023/07/10 08:34:42;;;;;;;2.00;1.47;;;;;;;24.53;55.92;96011.03;4359791;32;20211;-60
2023/07/10 08:37:08;;;;;;;1.27;1.20;;;;;;;24.52;56.33;96037.41;4341601;32;20247;-60
2023/07/10 08:39:33;;;;;;;2.07;1.97;;;;;;;24.49;56.46;96061.78;4345801;32;20193;-59
2023/07/10 08:42:02;;;;;;;1.80;1.20;;;;;;;24.42;56.90;96070.56;4345126;32;20255;-59
2023/07/10 08:44:36;;;;;;;2.07;1.97;;;;;;;24.07;58.35;96059.13;4352503;32;20233;-59
2023/07/10 08:47:15;;;;;;;1.03;0.97;;;;;;;23.67;59.35;96079.34;4360058;32;20197;-59
2023/07/10 08:49:45;;;;;;;1.40;1.10;;;;;;;23.51;60.39;96090.19;4362470;32;20249;-60
2023/07/10 08:52:13;;;;;;;1.27;1.17;;;;;;;23.44;61.33;96116.38;4349436;32;20200;-59
2023/07/10 08:54:39;;;;;;;0.90;0.90;;;;;;;23.34;62.63;96111.53;4343310;32;20248;-59
2023/07/10 08:57:17;;;;;;;2.17;1.97;;;;;;;23.31;63.68;96119.22;4359126;32;20211;-60
2023/07/10 08:59:53;;;;;;;0.97;0.97;;;;;;;23.24;64.92;96119.09;4361638;32;20264;-59
2023/07/10 09:03:07;;;;;;;1.20;1.20;;;;;;;23.10;67.27;96115.28;4362211;32;20197;-59
2023/07/10 09:05:37;;;;;;;1.47;1.40;;;;;;;22.95;71.93;96109.56;4317884;33;20224;-60
2023/07/10 09:08:05;;;;;;;0.80;0.80;;;;;;;22.90;69.38;96092.78;4354473;32;20221;-60
2023/07/10 09:10:54;;;;;;;0.63;0.63;;;;;;;22.78;69.87;96080.19;4357604;32;20213;-59
2023/07/10 09:13:42;;;;;;;0.97;0.97;;;;;;;22.82;72.11;96082.97;4363461;32;20220;-60
2023/07/10 09:16:15;;;;;;;1.40;1.30;;;;;;;22.75;71.41;96066.53;4349104;32;20252;-60
2023/07/10 09:18:52;;;;;;;1.13;1.13;;;;;;;22.74;72.31;96054.94;4360699;32;20193;-59
2023/07/10 09:21:25;;;;;;;8.33;1.43;;;;;;;22.70;73.58;96077.63;4362245;32;20193;-60
2023/07/10 09:23:50;;;;;;;2.10;1.47;;;;;;;22.71;72.10;96050.22;4341709;32;20314;-60
2023/07/10 09:26:26;;;;;;;1.37;1.27;;;;;;;22.68;76.89;96052.84;4357778;32;20204;-60
2023/07/10 09:29:03;;;;;;;1.27;1.00;;;;;;;22.40;77.10;96040.25;4347276;32;20302;-59
2023/07/10 09:31:49;;;;;;;3.13;1.07;;;;;;;22.18;79.63;96027.38;4358859;32;20300;-59
2023/07/10 09:34:20;;;;;;;1.20;1.20;;;;;;;21.77;84.73;96018.62;4347716;32;20201;-60
2023/07/10 09:36:54;;;;;;;1.23;1.23;;;;;;;21.70;83.49;96006.84;4360643;32;20204;-59
2023/07/10 09:39:24;;;;;;;1.90;1.43;;;;;;;21.95;85.01;95995.53;4356823;32;20231;-59
2023/07/10 09:41:49;;;;;;;1.40;1.40;;;;;;;21.94;85.57;95972.34;4361932;32;20318;-60
2023/07/10 09:44:16;;;;;;;1.03;1.03;;;;;;;21.56;87.66;95972.97;4349181;32;20279;-60
2023/07/10 09:46:41;;;;;;;1.63;1.53;;;;;;;;;;4346359;32;20255;-59
2023/07/10 09:49:14;;;;;;;2.93;1.53;;;;;;;21.79;81.25;96000.16;4348922;32;20262;-59
2023/07/10 09:51:56;;;;;;;1.57;1.47;;;;;;;22.22;77.69;95985.78;4362296;32;20228;-59
2023/07/10 09:54:22;;;;;;;2.93;1.43;;;;;;;22.22;84.23;95966.06;4360216;32;20204;-59
2023/07/10 09:56:51;;;;;;;1.20;1.10;;;;;;;22.04;86.45;95951.34;4361579;32;20196;-59
2023/07/10 09:59:30;;;;;;;0.90;0.90;;;;;;;21.73;88.97;95946.72;4359221;32;20224;-60
2023/07/10 10:01:55;;;;;;;1.13;1.13;;;;;;;21.98;81.48;95941.91;4345602;32;20193;-59
2023/07/10 10:04:27;;;;;;;0.97;0.97;;;;;;;22.22;81.11;95942.53;4362990;32;20286;-59
2023/07/10 10:07:14;;;;;;;1.30;1.20;;;;;;;22.36;79.96;95942.03;4358676;32;20248;-61
2023/07/10 10:09:40;;;;;;;2.83;2.10;;;;;;;22.58;79.64;95938.66;4358194;32;20248;-59
2023/07/10 10:12:22;;;;;;;1.07;1.07;;;;;;;22.69;80.08;95946.97;4359604;32;20208;-59
2023/07/10 10:15:05;;;;;;;0.60;0.60;;;;;;;22.67;83.36;95976.31;4356893;32;20189;-60
2023/07/10 10:17:36;;;;;;;2.00;1.80;;;;;;;22.82;79.14;95980.12;4350680;32;20193;-60
2023/07/10 10:20:18;;;;;;;1.40;1.30;;;;;;;22.90;78.37;95971.78;4361697;32;20196;-59
2023/07/10 10:22:43;;;;;;;0.90;0.90;;;;;;;22.97;77.38;95973.88;4346750;32;20261;-60
2023/07/10 10:25:16;;;;;;;1.20;1.17;;;;;;;23.06;77.78;95990.69;4357153;32;20264;-59
2023/07/10 10:27:51;;;;;;;1.70;1.43;;;;;;;23.17;77.51;96002.50;4357697;32;20200;-60
2023/07/10 10:30:31;;;;;;;1.00;1.00;;;;;;;23.18;76.54;96003.28;4348132;32;20192;-60
2023/07/10 10:33:52;;;;;;;1.93;1.83;;;;;;;23.27;77.59;96003.84;4359050;32;20217;-59
2023/07/10 10:36:36;;;;;;;4.27;2.00;;;;;;;23.30;79.66;96000.41;4327865;33;20194;-60
2023/07/10 10:39:12;;;;;;;1.83;1.70;;;;;;;23.38;81.77;96002.13;4353071;32;20224;-60
2023/07/10 10:41:55;;;;;;;1.40;1.30;;;;;;;23.45;79.79;96009.59;4355395;32;20200;-59
2023/07/10 10:44:45;;;;;;;1.60;1.57;;;;;;;23.52;80.27;96009.75;4346515;32;20198;-60
2023/07/10 10:47:26;;;;;;;1.63;1.53;;;;;;;23.63;81.33;96013.44;4359385;32;20201;-60
2023/07/10 10:50:35;;;;;;;2.73;2.53;;;;;;;23.68;81.08;96021.28;4357093;32;20236;-60
2023/07/10 10:53:10;;;;;;;2.90;2.03;;;;;;;23.71;80.22;96015.13;4346257;32;20195;-60
2023/07/10 10:55:48;;;;;;;1.57;1.50;;;;;;;23.86;83.34;96018.88;4346724;32;20188;-59
2023/07/10 10:58:19;;;;;;;1.23;1.23;;;;;;;23.81;81.13;96025.38;4360160;32;20263;-60
2023/07/10 11:01:07;;;;;;;5.77;2.17;;;;;;;23.84;79.43;96019.25;4345889;32;20196;-60
2023/07/10 11:03:42;;;;;;;3.00;2.80;;;;;;;23.94;79.75;96017.84;4343109;32;20193;-60
2023/07/10 11:06:26;;;;;;;1.33;1.23;;;;;;;23.99;80.38;96004.00;4345317;32;20189;-60
2023/07/10 11:08:53;;;;;;;1.97;1.83;;;;;;;23.93;78.64;96011.62;4359887;32;20193;-60
2023/07/10 11:11:30;;;;;;;6.73;1.73;;;;;;;23.90;76.76;96006.94;4357489;32;20240;-60
2023/07/10 11:13:56;;;;;;;0.87;0.87;;;;;;;23.95;77.38;95998.50;4359314;32;20207;-60
2023/07/10 11:16:22;;;;;;;1.73;1.63;;;;;;;24.03;77.86;96002.13;4345467;32;20191;-58
2023/07/10 11:18:48;;;;;;;1.90;1.80;;;;;;;24.00;75.82;96000.13;4361284;32;20207;-58
2023/07/10 11:21:14;;;;;;;1.30;1.30;;;;;;;24.15;75.90;95990.28;4361408;32;20267;-59
2023/07/10 11:23:42;;;;;;;2.43;2.33;;;;;;;24.17;75.76;95990.72;4360957;32;20232;-58
2023/07/10 11:26:21;;;;;;;1.63;1.50;;;;;;;24.36;75.84;95985.22;4360555;32;20186;-59
2023/07/10 11:28:49;;;;;;;1.80;1.70;;;;;;;24.42;74.18;95975.63;4345340;32;20211;-58
2023/07/10 11:31:19;;;;;;;2.80;2.60;;;;;;;24.48;73.51;95971.44;4339377;32;20268;-59
2023/07/10 11:33:52;;;;;;;2.10;2.00;;;;;;;24.67;72.71;95967.81;4359042;32;20189;-58
2023/07/10 11:36:42;;;;;;;2.53;1.23;;;;;;;24.69;71.60;95967.47;4345078;32;20194;-58
2023/07/10 11:39:11;;;;;;;0.80;0.80;;;;;;;24.54;71.46;95959.13;4357386;32;20249;-58
2023/07/10 11:41:39;;;;;;;1.27;1.20;;;;;;;24.63;70.30;95954.22;4342244;32;20223;-59